Time;durP1;ratioP1;P1;durP2;ratioP2;P2;SDS_P1;SDS_P2;PMS_P1;PMS_P2;Temp;Humidity;BMP_temperature;BMP_pressure;BME280_temperature;BME280_humidity;BME280_pressure;Samples;Min_cycle;Max_cycle;Signal;HPM_P1;HPM_P2
2023/09/02 00:01:18;;;;;;;21.43;14.47;;;16.30;99.90;;;;;;5047083;28;20181;-71
2023/09/02 00:03:44;;;;;;;16.37;14.27;;;16.20;99.90;;;;;;5048562;28;20729;-71
2023/09/02 00:06:10;;;;;;;17.90;13.90;;;16.20;99.90;;;;;;5046250;28;20178;-71
2023/09/02 00:08:35;;;;;;;14.63;12.97;;;16.20;99.90;;;;;;5047334;28;20210;-71
2023/09/02 00:11:01;;;;;;;15.20;13.60;;;16.20;99.90;;;;;;5065018;28;20208;-71
2023/09/02 00:13:27;;;;;;;14.57;13.00;;;16.20;99.90;;;;;;5068524;28;20199;-71
2023/09/02 00:15:52;;;;;;;16.77;13.37;;;16.20;99.90;;;;;;5067561;28;20181;-71
2023/09/02 00:18:18;;;;;;;16.70;13.93;;;16.20;99.90;;;;;;5068052;28;20259;-71
2023/09/02 00:20:44;;;;;;;16.93;13.17;;;16.30;99.90;;;;;;5068582;28;20185;-71
2023/09/02 00:23:10;;;;;;;16.87;13.50;;;16.20;99.90;;;;;;5068103;28;20539;-71
2023/09/02 00:25:36;;;;;;;15.30;13.53;;;16.20;99.90;;;;;;5067162;28;20181;-71
2023/09/02 00:28:02;;;;;;;14.73;13.13;;;16.20;99.90;;;;;;5067804;28;20431;-71
2023/09/02 00:30:27;;;;;;;17.47;13.40;;;16.30;99.90;;;;;;5047846;28;20219;-71
2023/09/02 00:32:53;;;;;;;16.53;13.60;;;16.30;99.90;;;;;;5048303;28;20242;-71
2023/09/02 00:35:19;;;;;;;17.33;13.23;;;16.20;99.90;;;;;;5047438;28;20227;-71
2023/09/02 00:37:44;;;;;;;14.73;13.00;;;16.30;99.90;;;;;;5047542;28;20181;-71
2023/09/02 00:40:14;;;;;;;15.53;13.10;;;16.30;99.90;;;;;;5048058;28;20197;-71
2023/09/02 00:42:42;;;;;;;15.03;12.83;;;16.30;99.90;;;;;;5046665;28;20331;-71
2023/09/02 00:45:08;;;;;;;17.47;13.70;;;16.30;99.90;;;;;;5046285;28;20444;-71
2023/09/02 00:47:34;;;;;;;15.17;12.87;;;16.30;99.90;;;;;;5047463;28;20447;-72
2023/09/02 00:50:00;;;;;;;17.77;14.00;;;16.30;99.90;;;;;;5046837;28;20432;-71
2023/09/02 00:52:26;;;;;;;16.50;12.57;;;16.30;99.90;;;;;;5047757;28;20423;-71
2023/09/02 00:54:52;;;;;;;19.37;13.30;;;16.30;99.90;;;;;;5047523;28;20412;-72
2023/09/02 00:57:18;;;;;;;18.03;12.67;;;16.30;99.90;;;;;;5047043;28;20235;-71
2023/09/02 00:59:43;;;;;;;15.70;12.47;;;16.30;99.90;;;;;;5044791;28;20773;-71
2023/09/02 01:02:09;;;;;;;13.27;11.40;;;16.30;99.90;;;;;;5049354;28;20177;-71
2023/09/02 01:04:36;;;;;;;14.53;12.60;;;16.30;99.90;;;;;;5067733;28;20264;-71
2023/09/02 01:07:02;;;;;;;16.80;12.90;;;16.30;99.90;;;;;;5054941;28;20181;-71
2023/09/02 01:09:30;;;;;;;16.03;12.07;;;16.30;99.90;;;;;;5069879;28;20435;-72
2023/09/02 01:11:56;;;;;;;16.27;12.50;;;16.30;99.90;;;;;;5067822;28;20448;-71
2023/09/02 01:14:22;;;;;;;17.17;13.63;;;16.30;99.90;;;;;;5059472;28;20420;-71
2023/09/02 01:16:48;;;;;;;14.87;11.27;;;16.20;99.90;;;;;;5050208;28;20186;-71
2023/09/02 01:19:17;;;;;;;16.13;12.87;;;16.20;99.90;;;;;;5047832;28;20542;-71
2023/09/02 01:22:02;;;;;;;20.03;13.40;;;16.30;99.90;;;;;;5046034;28;20273;-72
2023/09/02 01:24:36;;;;;;;13.97;12.20;;;16.30;99.90;;;;;;5045792;28;20486;-71
2023/09/02 01:27:13;;;;;;;15.00;13.13;;;16.30;99.90;;;;;;5046934;28;20426;-71
2023/09/02 01:30:03;;;;;;;14.50;12.00;;;16.40;99.90;;;;;;5056279;28;20462;-71
2023/09/02 01:32:34;;;;;;;15.80;12.60;;;16.30;99.90;;;;;;5044027;28;20530;-71
2023/09/02 01:35:07;;;;;;;14.13;12.30;;;16.30;99.90;;;;;;5046878;28;20408;-71
2023/09/02 01:37:34;;;;;;;17.43;12.67;;;16.30;99.90;;;;;;5044889;28;20917;-71
2023/09/02 01:40:05;;;;;;;15.57;13.13;;;16.30;99.90;;;;;;5047152;28;20801;-71
2023/09/02 01:42:32;;;;;;;18.00;13.90;;;16.30;99.90;;;;;;5045694;28;20412;-71
2023/09/02 01:44:59;;;;;;;15.60;12.67;;;16.30;99.90;;;;;;5046881;28;20416;-71
2023/09/02 01:47:25;;;;;;;14.73;11.93;;;16.30;99.90;;;;;;5043057;28;20412;-71
2023/09/02 01:49:51;;;;;;;19.53;13.37;;;16.30;99.90;;;;;;5046693;28;20901;-71
2023/09/02 01:52:18;;;;;;;17.50;13.33;;;16.30;99.90;;;;;;5045755;28;20515;-71
2023/09/02 01:54:44;;;;;;;15.17;12.90;;;16.30;99.90;;;;;;5046303;28;20511;-71
2023/09/02 01:57:10;;;;;;;15.63;12.67;;;16.30;99.90;;;;;;5046177;28;20550;-71
2023/09/02 01:59:36;;;;;;;18.77;12.63;;;16.30;99.90;;;;;;5044748;28;20471;-71
2023/09/02 02:02:02;;;;;;;18.00;12.20;;;16.30;99.90;;;;;;5046712;28;20420;-71
2023/09/02 02:04:33;;;;;;;15.27;13.13;;;16.30;99.90;;;;;;5046745;28;20264;-71
2023/09/02 02:07:13;;;;;;;16.90;13.17;;;16.30;99.90;;;;;;5048603;28;20182;-72
2023/09/02 02:09:43;;;;;;;19.07;13.50;;;16.30;99.90;;;;;;5049104;28;20482;-71
2023/09/02 02:12:10;;;;;;;15.10;11.63;;;16.30;99.90;;;;;;5050933;28;20419;-71
2023/09/02 02:14:35;;;;;;;19.60;14.00;;;16.30;99.90;;;;;;5050520;28;20469;-71
2023/09/02 02:17:03;;;;;;;17.13;12.40;;;16.20;99.90;;;;;;5050006;28;20530;-71
2023/09/02 02:19:29;;;;;;;12.93;11.43;;;16.20;99.90;;;;;;5050391;28;20246;-71
2023/09/02 02:21:55;;;;;;;20.40;13.60;;;16.20;99.90;;;;;;5049290;28;20917;-71
2023/09/02 02:24:20;;;;;;;17.73;13.27;;;16.20;99.90;;;;;;5050470;28;20780;-71
2023/09/02 02:26:46;;;;;;;16.50;13.37;;;16.20;99.90;;;;;;5048079;28;20189;-71
2023/09/02 02:29:12;;;;;;;17.60;13.00;;;16.20;99.90;;;;;;5056848;28;20203;-71
2023/09/02 02:31:37;;;;;;;17.90;13.60;;;16.30;99.90;;;;;;5070053;28;20543;-71
2023/09/02 02:34:03;;;;;;;17.80;14.00;;;16.30;99.90;;;;;;5070375;28;20208;-71
2023/09/02 02:36:29;;;;;;;16.50;12.27;;;16.30;99.90;;;;;;5068185;28;20326;-71
2023/09/02 02:38:54;;;;;;;15.40;12.63;;;16.30;99.90;;;;;;5068567;28;20212;-71
2023/09/02 02:41:20;;;;;;;17.97;12.33;;;16.20;99.90;;;;;;5070321;28;20642;-71
2023/09/02 02:43:46;;;;;;;15.60;12.90;;;16.20;99.90;;;;;;5069769;28;20259;-71
2023/09/02 02:46:12;;;;;;;15.63;12.00;;;16.20;99.90;;;;;;5069172;28;20178;-71
2023/09/02 02:48:37;;;;;;;16.00;12.13;;;16.20;99.90;;;;;;5069930;28;20718;-71
2023/09/02 02:51:03;;;;;;;16.57;12.37;;;16.20;99.90;;;;;;5069796;28;20185;-71
2023/09/02 02:53:29;;;;;;;16.80;12.83;;;16.30;99.90;;;;;;5069918;28;20189;-71
2023/09/02 02:55:54;;;;;;;17.93;12.53;;;16.30;99.90;;;;;;5067492;28;20546;-71
2023/09/02 02:58:21;;;;;;;16.03;12.13;;;16.30;99.90;;;;;;5069801;28;20684;-71
2023/09/02 03:00:46;;;;;;;14.90;12.30;;;16.30;99.90;;;;;;5068217;28;20197;-71
2023/09/02 03:03:13;;;;;;;17.10;12.80;;;16.40;99.90;;;;;;5069445;28;20451;-71
2023/09/02 03:05:42;;;;;;;17.57;12.77;;;16.40;99.90;;;;;;5068796;28;20507;-71
2023/09/02 03:08:09;;;;;;;16.07;12.80;;;16.30;99.90;;;;;;5069212;28;20427;-71
2023/09/02 03:10:35;;;;;;;14.47;12.60;;;16.40;99.90;;;;;;5069881;28;20434;-71
2023/09/02 03:13:04;;;;;;;17.27;13.03;;;16.40;99.90;;;;;;5069362;28;20416;-71
2023/09/02 03:15:31;;;;;;;16.60;12.63;;;16.40;99.90;;;;;;5069183;28;21156;-71
2023/09/02 03:17:56;;;;;;;14.80;11.97;;;16.40;99.90;;;;;;5054867;28;20452;-72
2023/09/02 03:20:22;;;;;;;17.93;12.90;;;16.40;99.90;;;;;;5049383;28;21253;-71
2023/09/02 03:22:48;;;;;;;17.37;13.43;;;16.40;99.90;;;;;;5048327;28;20208;-71
2023/09/02 03:25:13;;;;;;;15.33;12.37;;;16.30;99.90;;;;;;5048941;28;20186;-71
2023/09/02 03:27:40;;;;;;;15.93;11.60;;;16.30;99.90;;;;;;5048867;28;20178;-72
2023/09/02 03:30:07;;;;;;;16.67;11.87;;;16.20;99.90;;;;;;5062901;28;20612;-71
2023/09/02 03:32:33;;;;;;;17.10;12.30;;;16.20;99.90;;;;;;5069336;28;20411;-71
2023/09/02 03:34:58;;;;;;;14.17;12.03;;;16.20;99.90;;;;;;5069193;28;21254;-72
2023/09/02 03:37:24;;;;;;;15.73;11.80;;;16.10;99.90;;;;;;5068449;28;20408;-71
2023/09/02 03:39:51;;;;;;;14.93;11.83;;;16.10;99.90;;;;;;5067939;28;20219;-71
2023/09/02 03:42:16;;;;;;;17.30;11.70;;;16.10;99.90;;;;;;5069127;28;20419;-71
2023/09/02 03:44:42;;;;;;;15.70;12.00;;;16.20;99.90;;;;;;5068752;28;20827;-71
2023/09/02 03:47:08;;;;;;;14.80;11.63;;;16.20;99.90;;;;;;5067142;28;20188;-71
2023/09/02 03:49:33;;;;;;;13.83;11.07;;;16.20;99.90;;;;;;5068830;28;20701;-71
2023/09/02 03:51:59;;;;;;;15.77;10.73;;;16.20;99.90;;;;;;5069314;28;20272;-71
2023/09/02 03:54:25;;;;;;;12.73;10.50;;;16.20;99.90;;;;;;5068833;28;20187;-71
2023/09/02 03:56:50;;;;;;;14.70;11.47;;;16.20;99.90;;;;;;5068741;28;20189;-71
2023/09/02 03:59:16;;;;;;;11.33;10.00;;;16.20;99.90;;;;;;5068440;28;20700;-72
2023/09/02 04:01:42;;;;;;;15.30;10.50;;;16.20;99.90;;;;;;5067806;28;20177;-71
2023/09/02 04:04:08;;;;;;;11.63;9.90;;;16.20;99.90;;;;;;5067972;28;20221;-71
2023/09/02 04:06:34;;;;;;;9.63;8.63;;;16.20;99.90;;;;;;5068284;28;20181;-71
2023/09/02 04:08:59;;;;;;;13.43;10.03;;;16.30;99.90;;;;;;5053199;28;20205;-71
2023/09/02 04:11:25;;;;;;;10.63;8.70;;;16.30;99.90;;;;;;5076654;28;20435;-71
2023/09/02 04:13:50;;;;;;;10.80;8.30;;;16.20;99.90;;;;;;5070076;28;20203;-71
2023/09/02 04:16:16;;;;;;;9.90;8.87;;;16.20;99.90;;;;;;5076706;28;20558;-71
2023/09/02 04:18:42;;;;;;;10.23;9.13;;;16.20;99.90;;;;;;5070411;28;20220;-72
2023/09/02 04:21:10;;;;;;;13.00;9.17;;;16.10;99.90;;;;;;5067957;28;20185;-71
2023/09/02 04:23:36;;;;;;;12.80;9.57;;;16.10;99.90;;;;;;5068516;28;20177;-71
2023/09/02 04:26:02;;;;;;;10.27;9.17;;;16.10;99.90;;;;;;5066302;28;20415;-71
2023/09/02 04:28:28;;;;;;;11.07;8.60;;;16.00;99.90;;;;;;5064262;28;22958;-71
2023/09/02 04:30:56;;;;;;;11.60;8.80;;;16.00;99.90;;;;;;5046793;28;20440;-71
2023/09/02 04:33:23;;;;;;;10.13;8.30;;;16.10;99.90;;;;;;5048135;28;20247;-72
2023/09/02 04:35:50;;;;;;;11.13;8.40;;;16.10;99.90;;;;;;5046987;28;20420;-71
2023/09/02 04:38:16;;;;;;;9.97;8.40;;;16.20;99.90;;;;;;5048167;28;20960;-72
2023/09/02 04:40:43;;;;;;;11.27;8.77;;;16.20;99.90;;;;;;5048209;28;20420;-72
2023/09/02 04:43:10;;;;;;;9.27;8.37;;;16.20;99.90;;;;;;5047858;28;20432;-72
2023/09/02 04:45:38;;;;;;;10.20;7.90;;;16.20;99.90;;;;;;5047052;28;21292;-71
2023/09/02 04:48:04;;;;;;;8.53;7.50;;;16.10;99.90;;;;;;5046421;28;20416;-71
2023/09/02 04:50:31;;;;;;;8.90;8.00;;;16.20;99.90;;;;;;5047698;28;20444;-72
2023/09/02 04:52:58;;;;;;;9.07;7.93;;;16.20;99.90;;;;;;5047595;28;20466;-72
2023/09/02 04:55:25;;;;;;;8.30;7.47;;;16.20;99.90;;;;;;5045847;28;20505;-72
2023/09/02 04:57:52;;;;;;;8.33;7.50;;;16.20;99.90;;;;;;5046884;28;20416;-72
2023/09/02 05:00:17;;;;;;;9.57;8.67;;;16.20;99.90;;;;;;5045873;28;20436;-72
2023/09/02 05:02:46;;;;;;;10.37;8.37;;;16.20;99.90;;;;;;5046496;28;21107;-72
2023/09/02 05:05:17;;;;;;;8.07;6.90;;;16.20;99.90;;;;;;5046906;28;20408;-72
2023/09/02 05:07:43;;;;;;;7.70;7.00;;;16.30;99.90;;;;;;5047051;28;20455;-72
2023/09/02 05:10:09;;;;;;;8.10;7.30;;;16.30;99.90;;;;;;5047062;28;21201;-72
2023/09/02 05:12:34;;;;;;;9.10;7.30;;;16.30;99.90;;;;;;5047495;28;20255;-72
2023/09/02 05:15:00;;;;;;;8.57;7.30;;;16.30;99.90;;;;;;5046803;28;20453;-72
2023/09/02 05:17:27;;;;;;;7.97;7.10;;;16.30;99.90;;;;;;5046789;28;20182;-72
2023/09/02 05:19:52;;;;;;;9.17;7.20;;;16.40;99.90;;;;;;5047193;28;20475;-72
2023/09/02 05:22:18;;;;;;;9.90;8.10;;;16.30;99.90;;;;;;5047216;28;20416;-72
2023/09/02 05:24:44;;;;;;;8.23;6.33;;;16.30;99.90;;;;;;5045689;28;20223;-72
2023/09/02 05:27:09;;;;;;;7.80;7.10;;;16.40;99.90;;;;;;5046284;28;20178;-72
2023/09/02 05:29:35;;;;;;;7.00;6.30;;;16.40;99.90;;;;;;5055997;28;20215;-72
2023/09/02 05:32:01;;;;;;;7.87;6.00;;;16.50;99.90;;;;;;5067060;28;20222;-71
2023/09/02 05:34:26;;;;;;;7.40;5.93;;;16.50;99.90;;;;;;5066900;28;20212;-71
2023/09/02 05:36:52;;;;;;;7.43;6.30;;;16.50;99.90;;;;;;5066420;28;20189;-72
2023/09/02 05:39:18;;;;;;;6.47;5.83;;;16.50;99.90;;;;;;5066479;28;20215;-72
2023/09/02 05:41:46;;;;;;;6.27;5.33;;;16.50;99.90;;;;;;5065953;28;20189;-72
2023/09/02 05:44:13;;;;;;;7.23;6.07;;;16.50;99.90;;;;;;5066857;28;20552;-71
2023/09/02 05:46:38;;;;;;;6.03;5.37;;;16.60;99.90;;;;;;5065950;28;20788;-72
2023/09/02 05:49:04;;;;;;;5.90;5.27;;;16.60;99.90;;;;;;5066893;28;20435;-72
2023/09/02 05:51:30;;;;;;;6.23;5.40;;;16.60;99.90;;;;;;5066463;28;20181;-72
2023/09/02 05:53:56;;;;;;;6.63;5.93;;;16.70;99.90;;;;;;5067263;28;20177;-72
2023/09/02 05:56:21;;;;;;;6.93;5.30;;;16.70;99.90;;;;;;5065401;28;20239;-72
2023/09/02 05:58:47;;;;;;;6.60;5.90;;;16.70;99.90;;;;;;5066682;28;20894;-72
2023/09/02 06:01:13;;;;;;;5.00;4.60;;;16.70;99.90;;;;;;5064931;28;20795;-72
2023/09/02 06:03:40;;;;;;;6.37;5.00;;;16.80;99.90;;;;;;5066401;28;20260;-72
2023/09/02 06:06:12;;;;;;;5.80;5.20;;;16.80;99.90;;;;;;5065857;28;20511;-71
2023/09/02 06:08:38;;;;;;;6.07;4.60;;;16.90;99.90;;;;;;5066305;28;20436;-72
2023/09/02 06:11:05;;;;;;;6.03;5.07;;;16.90;99.90;;;;;;5066829;28;20472;-72
2023/09/02 06:13:31;;;;;;;5.53;5.00;;;17.00;99.90;;;;;;5066166;28;20815;-71
2023/09/02 06:15:59;;;;;;;7.30;5.03;;;17.00;99.90;;;;;;5065990;28;20415;-72
2023/09/02 06:18:25;;;;;;;6.63;4.73;;;17.00;99.90;;;;;;5065398;28;20990;-72
2023/09/02 06:20:50;;;;;;;5.10;4.50;;;17.00;99.90;;;;;;5066889;28;20416;-71
2023/09/02 06:23:16;;;;;;;6.83;4.53;;;17.00;99.90;;;;;;5066799;28;20415;-72
2023/09/02 06:25:42;;;;;;;5.60;4.60;;;17.10;99.90;;;;;;5065187;28;20177;-72
2023/09/02 06:28:08;;;;;;;4.67;3.77;;;17.10;99.90;;;;;;5065962;28;20185;-72
2023/09/02 06:30:36;;;;;;;4.40;3.97;;;17.10;99.90;;;;;;5046176;28;20200;-72
2023/09/02 06:33:03;;;;;;;5.43;4.40;;;17.10;99.90;;;;;;5046746;28;20428;-72
2023/09/02 06:35:31;;;;;;;5.23;4.73;;;17.10;99.90;;;;;;5027975;28;20416;-72
2023/09/02 06:37:58;;;;;;;4.90;4.07;;;17.10;99.90;;;;;;5046688;28;20488;-72
2023/09/02 06:40:24;;;;;;;5.40;4.27;;;17.10;99.90;;;;;;5046647;28;20464;-71
2023/09/02 06:42:49;;;;;;;5.13;4.67;;;17.20;99.90;;;;;;5045372;28;20218;-72
2023/09/02 06:45:15;;;;;;;5.17;4.03;;;17.20;99.90;;;;;;5046453;28;20181;-72
2023/09/02 06:47:41;;;;;;;4.60;4.20;;;17.30;99.90;;;;;;5046328;28;20206;-72
2023/09/02 06:50:07;;;;;;;4.80;3.80;;;17.40;99.90;;;;;;5045717;28;20273;-72
2023/09/02 06:52:32;;;;;;;4.10;3.70;;;17.40;99.90;;;;;;5047480;28;20185;-72
2023/09/02 06:54:58;;;;;;;6.03;3.83;;;17.40;99.90;;;;;;5050442;28;20423;-72
2023/09/02 06:57:24;;;;;;;3.43;3.13;;;17.40;99.90;;;;;;5050202;28;20192;-72
2023/09/02 06:59:50;;;;;;;3.33;3.07;;;17.40;99.90;;;;;;5048519;28;20213;-72
2023/09/02 07:02:15;;;;;;;3.60;3.30;;;17.40;99.90;;;;;;5050584;28;20416;-72
2023/09/02 07:04:41;;;;;;;3.30;3.00;;;17.40;99.90;;;;;;5050224;28;20209;-72
2023/09/02 07:07:07;;;;;;;3.47;2.70;;;17.40;99.90;;;;;;5050084;28;20182;-72
2023/09/02 07:09:32;;;;;;;3.90;3.53;;;17.40;99.90;;;;;;5058041;28;20233;-71
2023/09/02 07:11:58;;;;;;;4.60;3.50;;;17.40;99.90;;;;;;5068610;28;20199;-72
2023/09/02 07:14:24;;;;;;;4.87;3.80;;;17.40;99.90;;;;;;5072718;28;20553;-71
2023/09/02 07:16:50;;;;;;;3.33;2.80;;;17.50;99.90;;;;;;5078272;28;20189;-72
2023/09/02 07:19:16;;;;;;;3.40;3.10;;;17.50;99.90;;;;;;5071672;28;20205;-72
2023/09/02 07:21:41;;;;;;;3.57;3.27;;;17.60;99.90;;;;;;5070198;28;20446;-72
2023/09/02 07:24:08;;;;;;;3.00;2.80;;;17.60;99.90;;;;;;5068618;28;20650;-72
2023/09/02 07:26:34;;;;;;;2.60;2.40;;;17.60;99.90;;;;;;5068872;28;20181;-72
2023/09/02 07:28:59;;;;;;;2.60;2.40;;;17.70;99.90;;;;;;5061590;28;20862;-72
2023/09/02 07:31:25;;;;;;;3.13;2.93;;;17.70;99.90;;;;;;5049514;28;20690;-72
2023/09/02 07:33:51;;;;;;;3.40;3.00;;;17.80;99.90;;;;;;5048371;28;20217;-72
2023/09/02 07:36:17;;;;;;;3.20;2.90;;;17.80;99.90;;;;;;5047177;28;20198;-72
2023/09/02 07:38:44;;;;;;;2.70;2.40;;;17.80;99.90;;;;;;5049499;28;20226;-71
2023/09/02 07:41:10;;;;;;;3.10;2.90;;;17.80;99.90;;;;;;5049634;28;20181;-71
2023/09/02 07:43:36;;;;;;;2.57;2.37;;;17.80;99.90;;;;;;5049415;28;20428;-71
2023/09/02 07:46:01;;;;;;;4.07;3.67;;;17.90;99.90;;;;;;5048354;28;20201;-71
2023/09/02 07:48:27;;;;;;;3.60;3.30;;;17.90;99.90;;;;;;5049027;28;21071;-71
2023/09/02 07:50:53;;;;;;;3.80;3.50;;;17.90;99.90;;;;;;5049442;28;20618;-71
2023/09/02 07:53:18;;;;;;;3.40;3.10;;;17.80;99.90;;;;;;5048841;28;20185;-71
2023/09/02 07:55:44;;;;;;;3.70;3.40;;;17.80;99.90;;;;;;5048204;28;20564;-71
2023/09/02 07:58:10;;;;;;;3.80;3.07;;;17.90;99.90;;;;;;5047597;28;20201;-71
2023/09/02 08:00:36;;;;;;;2.87;2.57;;;17.90;99.90;;;;;;5047018;28;20239;-71
2023/09/02 08:03:06;;;;;;;3.20;2.90;;;18.00;99.90;;;;;;5048173;28;20521;-71
2023/09/02 08:05:31;;;;;;;2.90;2.70;;;18.00;99.90;;;;;;5047509;28;20424;-71
2023/09/02 08:07:57;;;;;;;3.37;3.10;;;18.10;99.90;;;;;;5048925;28;20421;-71
2023/09/02 08:10:23;;;;;;;2.70;2.50;;;18.10;99.90;;;;;;5048750;28;20216;-71
2023/09/02 08:12:49;;;;;;;3.40;3.10;;;18.10;99.90;;;;;;5048622;28;20182;-71
2023/09/02 08:15:15;;;;;;;3.20;2.90;;;18.10;99.90;;;;;;5048502;28;20411;-71
2023/09/02 08:17:41;;;;;;;2.90;2.70;;;18.10;99.90;;;;;;5047909;28;20265;-72
2023/09/02 08:20:09;;;;;;;2.30;2.10;;;18.10;99.90;;;;;;5048657;28;20296;-71
2023/09/02 08:22:39;;;;;;;3.80;2.57;;;18.20;99.90;;;;;;5048384;28;20413;-71
2023/09/02 08:25:06;;;;;;;2.83;2.13;;;18.20;99.90;;;;;;5046929;28;20498;-71
2023/09/02 08:27:31;;;;;;;2.50;2.30;;;18.30;99.90;;;;;;5047559;28;20412;-71
2023/09/02 08:29:57;;;;;;;2.37;2.20;;;18.30;99.90;;;;;;5060638;28;20440;-72
2023/09/02 08:32:23;;;;;;;3.10;1.90;;;18.40;99.90;;;;;;5068289;28;20197;-71
2023/09/02 08:34:49;;;;;;;2.40;2.20;;;18.40;99.90;;;;;;5066536;28;20177;-71
2023/09/02 08:37:14;;;;;;;3.03;2.30;;;18.50;99.90;;;;;;5067707;28;20419;-71
2023/09/02 08:39:40;;;;;;;6.20;2.60;;;18.50;99.90;;;;;;5067938;28;20205;-71
2023/09/02 08:42:06;;;;;;;4.90;2.27;;;18.60;99.90;;;;;;5068122;28;20541;-71
2023/09/02 08:44:36;;;;;;;2.70;2.30;;;18.60;99.90;;;;;;5068249;28;20209;-71
2023/09/02 08:47:02;;;;;;;2.50;2.30;;;18.60;99.90;;;;;;5067013;28;20476;-71
2023/09/02 08:49:28;;;;;;;2.40;2.20;;;18.60;99.90;;;;;;5066920;28;20440;-71
2023/09/02 08:51:55;;;;;;;8.43;2.50;;;18.60;99.90;;;;;;5067690;28;20486;-71
2023/09/02 08:54:22;;;;;;;2.63;2.30;;;18.70;99.90;;;;;;5067799;28;20422;-71
2023/09/02 08:56:51;;;;;;;2.00;1.90;;;18.80;99.90;;;;;;5066748;28;20962;-71
2023/09/02 08:59:18;;;;;;;2.60;2.40;;;18.90;99.90;;;;;;5067329;28;20968;-71
2023/09/02 09:01:45;;;;;;;2.20;2.00;;;18.90;99.90;;;;;;5067405;28;20424;-71
2023/09/02 09:04:14;;;;;;;1.97;1.77;;;18.90;99.90;;;;;;5067609;28;20769;-71
2023/09/02 09:06:41;;;;;;;2.30;2.00;;;19.00;99.90;;;;;;5066873;28;20565;-71
2023/09/02 09:09:11;;;;;;;2.33;2.13;;;19.10;99.90;;;;;;5067444;28;20439;-71
2023/09/02 09:11:41;;;;;;;1.87;1.73;;;19.10;99.90;;;;;;5067691;28;20864;-71
2023/09/02 09:14:16;;;;;;;3.97;1.97;;;19.10;99.90;;;;;;5067617;28;20420;-71
2023/09/02 09:16:43;;;;;;;1.90;1.70;;;19.20;99.90;;;;;;5066507;28;20430;-71
2023/09/02 09:19:09;;;;;;;4.00;1.87;;;19.20;99.90;;;;;;5067354;28;20473;-71
2023/09/02 09:21:35;;;;;;;2.80;2.60;;;19.30;99.90;;;;;;5067461;28;20922;-71
2023/09/02 09:24:02;;;;;;;2.40;2.00;;;19.40;99.90;;;;;;5067329;28;20411;-71
2023/09/02 09:26:30;;;;;;;2.43;2.10;;;19.40;99.90;;;;;;5066511;28;20280;-72
2023/09/02 09:28:58;;;;;;;1.83;1.73;;;19.50;99.90;;;;;;5059936;28;20526;-71
2023/09/02 09:31:24;;;;;;;2.20;2.00;;;19.60;99.90;;;;;;5047157;28;21006;-71
2023/09/02 09:33:54;;;;;;;2.07;1.87;;;19.80;99.90;;;;;;5045835;28;20427;-71
2023/09/02 09:36:24;;;;;;;4.90;2.03;;;19.90;99.90;;;;;;5046399;28;20515;-71
2023/09/02 09:38:54;;;;;;;2.30;2.10;;;19.90;99.90;;;;;;5046892;28;20463;-71
2023/09/02 09:41:20;;;;;;;2.63;2.00;;;20.00;99.90;;;;;;5047441;28;20416;-71
2023/09/02 09:44:04;;;;;;;1.83;1.67;;;20.20;99.90;;;;;;5047323;28;20420;-71
2023/09/02 09:46:42;;;;;;;1.80;1.70;;;20.30;99.90;;;;;;5046338;28;20423;-71
2023/09/02 09:49:08;;;;;;;2.47;1.70;;;20.30;99.90;;;;;;5052728;28;20435;-71
2023/09/02 09:51:34;;;;;;;2.87;2.27;;;20.50;99.90;;;;;;5067748;28;20476;-71
2023/09/02 09:53:59;;;;;;;1.80;1.70;;;20.50;99.90;;;;;;5068294;28;20182;-72
2023/09/02 09:56:25;;;;;;;2.07;1.87;;;20.50;99.90;;;;;;5043192;28;20196;-71
2023/09/02 09:58:51;;;;;;;1.60;1.50;;;20.70;99.90;;;;;;5048279;28;20217;-71
2023/09/02 10:01:24;;;;;;;1.87;1.50;;;20.70;99.90;;;;;;5047409;28;20959;-71
2023/09/02 10:03:51;;;;;;;2.47;1.30;;;20.80;99.90;;;;;;5048485;28;20189;-71
2023/09/02 10:06:21;;;;;;;1.53;1.43;;;20.90;99.90;;;;;;5046136;28;20427;-71
2023/09/02 10:08:54;;;;;;;1.37;1.27;;;20.90;99.90;;;;;;5060414;28;20859;-71
2023/09/02 10:11:26;;;;;;;1.17;1.07;;;21.00;99.90;;;;;;5058130;28;20428;-72
2023/09/02 10:13:52;;;;;;;1.97;1.70;;;21.10;99.90;;;;;;5083204;28;20471;-71
2023/09/02 10:16:19;;;;;;;2.37;1.10;;;21.20;99.90;;;;;;5073421;28;20487;-71
2023/09/02 10:18:49;;;;;;;1.50;1.17;;;21.30;99.90;;;;;;5058526;28;21050;-72
2023/09/02 10:21:16;;;;;;;1.30;1.20;;;21.30;99.90;;;;;;5058855;28;20770;-72
2023/09/02 10:23:54;;;;;;;1.30;1.20;;;21.30;99.90;;;;;;5065812;28;20526;-72
2023/09/02 10:26:46;;;;;;;2.50;1.40;;;21.40;99.90;;;;;;5066113;28;21287;-72
2023/09/02 10:29:16;;;;;;;1.50;1.40;;;21.40;99.90;;;;;;5055011;28;20574;-71
2023/09/02 10:31:46;;;;;;;3.30;1.30;;;21.50;99.90;;;;;;5050422;28;20455;-71
2023/09/02 10:34:21;;;;;;;1.50;1.40;;;21.50;99.90;;;;;;5050668;28;20921;-71
2023/09/02 10:36:56;;;;;;;2.43;1.70;;;21.50;99.90;;;;;;5050546;28;20492;-71
2023/09/02 10:39:34;;;;;;;1.63;1.47;;;21.50;99.90;;;;;;5050166;28;20467;-71
2023/09/02 10:42:01;;;;;;;1.67;1.27;;;21.50;99.90;;;;;;5050741;28;20412;-71
2023/09/02 10:44:28;;;;;;;1.90;1.13;;;21.60;99.90;;;;;;5050124;28;20499;-71
2023/09/02 10:46:55;;;;;;;1.93;1.27;;;21.70;99.90;;;;;;5049814;28;20412;-71
2023/09/02 10:49:22;;;;;;;1.50;1.40;;;21.80;99.90;;;;;;5050019;28;20937;-71
2023/09/02 10:51:49;;;;;;;1.40;1.30;;;21.90;99.90;;;;;;5050626;28;20459;-71
2023/09/02 10:54:14;;;;;;;2.43;1.30;;;21.80;99.90;;;;;;5050168;28;20931;-71
2023/09/02 10:56:40;;;;;;;1.47;1.30;;;21.80;99.90;;;;;;5049017;28;20416;-71
2023/09/02 10:59:07;;;;;;;1.50;1.40;;;21.90;99.90;;;;;;5050130;28;20659;-71
2023/09/02 11:01:44;;;;;;;1.83;1.47;;;22.00;99.90;;;;;;5048556;28;20258;-71
2023/09/02 11:04:10;;;;;;;1.90;1.50;;;22.10;99.90;;;;;;5050132;28;20847;-71
2023/09/02 11:06:36;;;;;;;1.33;1.23;;;22.10;99.90;;;;;;5047599;28;20452;-71
2023/09/02 11:09:01;;;;;;;2.33;1.60;;;22.00;99.90;;;;;;5050032;28;20214;-71
2023/09/02 11:12:06;;;;;;;1.60;1.50;;;22.00;99.90;;;;;;5049751;28;20491;-71
2023/09/02 11:14:32;;;;;;;1.50;1.40;;;22.00;99.90;;;;;;5048360;28;20214;-71
2023/09/02 11:17:29;;;;;;;1.83;1.60;;;22.00;99.90;;;;;;5048961;28;20446;-71
2023/09/02 11:19:56;;;;;;;3.17;1.50;;;21.90;99.90;;;;;;5049605;28;20928;-71
2023/09/02 11:22:51;;;;;;;2.10;1.50;;;21.80;99.90;;;;;;5049759;28;21153;-72
2023/09/02 11:25:39;;;;;;;3.03;1.60;;;21.70;99.90;;;;;;5049060;28;20423;-71
2023/09/02 11:28:26;;;;;;;2.57;1.43;;;21.70;99.90;;;;;;5049432;28;20416;-71
2023/09/02 11:31:16;;;;;;;1.70;1.60;;;21.70;99.90;;;;;;5051068;28;20526;-71
2023/09/02 11:33:47;;;;;;;1.47;1.37;;;21.80;99.90;;;;;;5061309;28;20828;-71
2023/09/02 11:36:16;;;;;;;1.40;1.30;;;21.80;99.90;;;;;;5068541;28;20498;-71
2023/09/02 11:38:41;;;;;;;1.60;1.40;;;21.80;99.90;;;;;;5069335;28;21018;-71
2023/09/02 11:41:10;;;;;;;2.30;2.10;;;21.90;99.90;;;;;;5068215;28;20416;-71
2023/09/02 11:43:36;;;;;;;2.20;1.80;;;22.00;99.90;;;;;;5069298;28;20552;-71
2023/09/02 11:46:03;;;;;;;3.30;2.30;;;22.10;99.90;;;;;;5068375;28;20415;-72
2023/09/02 11:48:30;;;;;;;2.40;1.90;;;22.10;99.90;;;;;;5067549;28;20514;-71
2023/09/02 11:50:58;;;;;;;2.30;2.10;;;22.10;99.90;;;;;;5069229;28;20448;-71
2023/09/02 11:53:32;;;;;;;4.20;2.60;;;22.20;99.90;;;;;;5068835;28;20422;-71
2023/09/02 11:55:58;;;;;;;3.20;2.00;;;22.10;99.90;;;;;;5068201;28;20469;-71
2023/09/02 11:58:24;;;;;;;2.00;1.90;;;22.10;99.90;;;;;;5067377;28;20458;-71
2023/09/02 12:00:50;;;;;;;2.20;2.00;;;22.10;99.90;;;;;;5067596;28;20647;-71
2023/09/02 12:03:31;;;;;;;2.70;2.37;;;22.10;99.90;;;;;;5053857;28;20416;-72
2023/09/02 12:06:02;;;;;;;2.83;2.63;;;22.10;99.90;;;;;;5048171;28;20186;-71
2023/09/02 12:08:31;;;;;;;3.10;2.90;;;22.10;99.90;;;;;;5045242;28;20432;-71
2023/09/02 12:11:02;;;;;;;3.07;2.77;;;22.10;99.90;;;;;;5047746;28;20419;-71
2023/09/02 12:13:28;;;;;;;2.53;2.30;;;22.10;99.90;;;;;;5052756;28;20454;-72
2023/09/02 12:15:54;;;;;;;2.93;2.37;;;22.00;99.90;;;;;;5067631;28;20422;-72
2023/09/02 12:18:21;;;;;;;8.23;2.40;;;22.00;99.90;;;;;;5067116;28;20461;-71
2023/09/02 12:20:47;;;;;;;2.30;2.13;;;22.00;99.90;;;;;;5067382;28;20181;-71
2023/09/02 12:23:13;;;;;;;2.60;2.20;;;22.00;99.90;;;;;;5068255;28;20424;-71
2023/09/02 12:25:40;;;;;;;2.63;2.07;;;22.10;99.90;;;;;;5066231;28;20792;-72
2023/09/02 12:28:11;;;;;;;2.67;2.47;;;22.20;99.90;;;;;;5067745;28;20426;-71
2023/09/02 12:30:37;;;;;;;3.23;2.90;;;22.20;99.90;;;;;;5047001;28;20428;-72
2023/09/02 12:33:04;;;;;;;2.60;2.40;;;22.20;99.90;;;;;;5048165;28;20547;-72
2023/09/02 12:35:30;;;;;;;4.00;2.63;;;22.10;99.90;;;;;;5047613;28;20424;-71
2023/09/02 12:38:03;;;;;;;3.17;2.70;;;22.20;99.90;;;;;;5048114;28;20424;-72
2023/09/02 12:40:29;;;;;;;3.50;2.27;;;22.20;99.90;;;;;;5048285;28;20328;-72
2023/09/02 12:42:55;;;;;;;2.53;2.33;;;22.20;99.90;;;;;;5047179;28;20524;-71